createdAt,value
2023-02-25T00:01:09.326Z,51
2023-02-25T00:02:53.025Z,51
2023-02-25T00:04:36.749Z,51
2023-02-25T00:06:20.448Z,51
2023-02-25T00:08:04.137Z,51
2023-02-25T00:09:47.838Z,51.1
2023-02-25T00:11:31.537Z,51
2023-02-25T00:13:15.396Z,51.1
2023-02-25T00:16:42.622Z,51
2023-02-25T00:18:26.331Z,51.1
2023-02-25T00:20:10.055Z,51
2023-02-25T00:21:53.744Z,51
2023-02-25T00:23:37.431Z,51
2023-02-25T00:25:21.196Z,51.1
2023-02-25T00:27:04.939Z,50.9
2023-02-25T00:28:48.579Z,51
2023-02-25T00:30:32.262Z,51
2023-02-25T00:32:15.948Z,50.9
2023-02-25T00:33:59.698Z,51
2023-02-25T00:35:43.325Z,50.9
2023-02-25T00:37:27.036Z,50.9
2023-02-25T00:39:10.752Z,50.9
2023-02-25T00:40:54.481Z,51
2023-02-25T00:42:38.140Z,50.9
2023-02-25T00:44:21.848Z,50.9
2023-02-25T00:46:05.559Z,50.9
2023-02-25T00:47:49.277Z,50.9
2023-02-25T00:49:33.046Z,50.8
2023-02-25T00:51:16.674Z,50.8
2023-02-25T00:53:00.359Z,50.8
2023-02-25T00:54:44.095Z,50.7
2023-02-25T00:56:27.741Z,50.8
2023-02-25T00:58:11.458Z,50.8
2023-02-25T00:59:55.165Z,50.8
2023-02-25T01:01:38.867Z,50.8
2023-02-25T01:03:22.568Z,50.7
2023-02-25T01:05:06.274Z,50.7
2023-02-25T01:06:49.967Z,50.7
2023-02-25T01:08:33.671Z,50.7
2023-02-25T01:10:17.363Z,50.8
2023-02-25T01:12:01.070Z,50.7
2023-02-25T01:13:44.770Z,50.7
2023-02-25T01:15:28.493Z,50.7
2023-02-25T01:17:12.209Z,50.6
2023-02-25T01:18:55.886Z,50.6
2023-02-25T01:20:39.587Z,50.6
2023-02-25T01:22:23.274Z,50.6
2023-02-25T01:24:06.985Z,50.6
2023-02-25T01:25:50.671Z,50.7
2023-02-25T01:27:34.372Z,50.7
2023-02-25T01:29:18.112Z,50.6
2023-02-25T01:31:01.797Z,50.5
2023-02-25T01:32:45.484Z,50.6
2023-02-25T01:34:29.186Z,50.6
2023-02-25T01:36:12.887Z,50.5
2023-02-25T01:37:56.589Z,50.4
2023-02-25T01:39:40.296Z,50.5
2023-02-25T01:41:24.050Z,50.5
2023-02-25T01:43:07.712Z,50.4
2023-02-25T01:44:51.411Z,50.5
2023-02-25T01:46:35.123Z,50.5
2023-02-25T01:48:18.810Z,50.5
2023-02-25T01:50:02.520Z,50.4
2023-02-25T01:51:46.226Z,50.4
2023-02-25T01:53:29.928Z,50.4
2023-02-25T01:55:13.720Z,50.4
2023-02-25T01:56:57.381Z,50.5
2023-02-25T01:58:41.037Z,50.4
2023-02-25T02:00:24.766Z,50.4
2023-02-25T02:02:08.436Z,50.4
2023-02-25T02:03:52.126Z,50.4
2023-02-25T02:05:35.880Z,50.4
2023-02-25T02:07:19.543Z,50.4
2023-02-25T02:09:03.230Z,50.4
2023-02-25T02:10:46.942Z,50.4
2023-02-25T02:12:30.649Z,50.4
2023-02-25T02:14:14.358Z,50.4
2023-02-25T02:15:58.052Z,50.3
2023-02-25T02:17:41.737Z,50.3
2023-02-25T02:19:25.454Z,50.4
2023-02-25T02:21:09.158Z,50.4
2023-02-25T02:22:52.847Z,50.3
2023-02-25T02:24:36.547Z,50.3
2023-02-25T02:26:20.272Z,50.3
2023-02-25T02:28:04.022Z,50.3
2023-02-25T02:29:47.697Z,50.3
2023-02-25T02:31:31.372Z,50.3
2023-02-25T02:33:15.057Z,50.3
2023-02-25T02:34:58.765Z,50.4
2023-02-25T02:36:42.496Z,50.3
2023-02-25T02:38:26.191Z,50.3
2023-02-25T02:40:09.874Z,50.3
2023-02-25T02:41:53.581Z,50.3
2023-02-25T02:43:37.292Z,50.3
2023-02-25T02:45:20.994Z,50.2
2023-02-25T02:47:04.678Z,50.3
2023-02-25T02:48:48.376Z,50.3
2023-02-25T02:50:32.087Z,50.3
2023-02-25T02:52:15.766Z,50.2
2023-02-25T02:53:59.476Z,50.1
2023-02-25T02:55:43.224Z,50.2
2023-02-25T02:57:26.884Z,50.2
2023-02-25T02:59:10.558Z,50.2
2023-02-25T03:00:54.277Z,50.2
2023-02-25T03:02:37.973Z,50.2
2023-02-25T03:04:21.715Z,50.2
2023-02-25T03:06:05.358Z,50.2
2023-02-25T03:07:49.084Z,50.2
2023-02-25T03:09:32.775Z,50.1
2023-02-25T03:11:16.476Z,50.1
2023-02-25T03:13:00.193Z,50
2023-02-25T03:14:43.885Z,50.1
2023-02-25T03:16:27.599Z,50.1
2023-02-25T03:18:11.291Z,50.1
2023-02-25T03:19:55.000Z,50.1
2023-02-25T03:21:38.706Z,50.1
2023-02-25T03:23:22.424Z,50.1
2023-02-25T03:25:06.111Z,50.1
2023-02-25T03:26:49.918Z,50.1
2023-02-25T03:28:33.496Z,50.1
2023-02-25T03:30:17.231Z,50.1
2023-02-25T03:32:00.911Z,50
2023-02-25T03:33:44.657Z,50
2023-02-25T03:35:28.304Z,50
2023-02-25T03:37:12.068Z,50
2023-02-25T03:38:55.705Z,50
2023-02-25T03:40:39.426Z,49.9
2023-02-25T03:42:23.175Z,50
2023-02-25T03:44:06.857Z,50
2023-02-25T03:45:50.532Z,49.9
2023-02-25T03:47:34.250Z,50
2023-02-25T03:49:17.932Z,50
2023-02-25T03:51:01.674Z,49.9
2023-02-25T03:52:45.336Z,50
2023-02-25T03:54:29.080Z,50
2023-02-25T03:56:12.741Z,49.9
2023-02-25T03:57:56.433Z,50
2023-02-25T03:59:40.139Z,50
2023-02-25T04:01:23.840Z,49.9
2023-02-25T04:03:07.547Z,49.9
2023-02-25T04:04:51.236Z,49.9
2023-02-25T04:06:34.943Z,49.9
2023-02-25T04:08:18.646Z,49.9
2023-02-25T04:10:02.357Z,50
2023-02-25T04:11:46.036Z,49.9
2023-02-25T04:13:29.754Z,49.9
2023-02-25T04:15:13.446Z,49.9
2023-02-25T04:16:57.160Z,49.9
2023-02-25T04:18:40.844Z,49.8
2023-02-25T04:20:24.560Z,49.8
2023-02-25T04:22:08.352Z,49.8
2023-02-25T04:23:51.959Z,49.8
2023-02-25T04:25:35.654Z,49.8
2023-02-25T04:27:19.380Z,49.8
2023-02-25T04:29:03.073Z,49.9
2023-02-25T04:30:46.775Z,49.9
2023-02-25T04:32:30.510Z,49.8
2023-02-25T04:34:14.194Z,49.8
2023-02-25T04:35:57.885Z,49.8
2023-02-25T04:37:41.588Z,49.8
2023-02-25T04:39:25.312Z,49.9
2023-02-25T04:41:08.990Z,49.8
2023-02-25T04:42:52.721Z,49.8
2023-02-25T04:44:36.396Z,49.8
2023-02-25T04:46:20.104Z,49.8
2023-02-25T04:48:03.799Z,49.7
2023-02-25T04:49:47.561Z,49.7
2023-02-25T04:51:31.272Z,49.8
2023-02-25T04:53:14.919Z,49.8
2023-02-25T04:54:58.620Z,49.8
2023-02-25T04:56:42.344Z,49.8
2023-02-25T04:58:26.033Z,49.7
2023-02-25T05:00:09.758Z,49.7
2023-02-25T05:01:53.424Z,49.8
2023-02-25T05:03:37.146Z,49.9
2023-02-25T05:05:20.838Z,49.7
2023-02-25T05:07:04.549Z,49.8
2023-02-25T05:08:48.246Z,49.8
2023-02-25T05:10:31.958Z,49.7
2023-02-25T05:12:15.639Z,49.8
2023-02-25T05:13:59.345Z,49.7
2023-02-25T05:15:43.046Z,49.7
2023-02-25T05:17:26.734Z,49.7
2023-02-25T05:19:10.457Z,49.7
2023-02-25T05:20:54.138Z,49.7
2023-02-25T05:22:37.817Z,49.7
2023-02-25T05:24:21.550Z,49.7
2023-02-25T05:26:05.264Z,49.7
2023-02-25T05:27:48.945Z,49.7
2023-02-25T05:29:32.653Z,49.7
2023-02-25T05:31:16.367Z,49.6
2023-02-25T05:33:00.051Z,49.6
2023-02-25T05:34:43.782Z,49.7
2023-02-25T05:36:27.473Z,49.7
2023-02-25T05:38:11.151Z,49.7
2023-02-25T05:39:54.862Z,49.8
2023-02-25T05:41:38.562Z,49.7
2023-02-25T05:43:22.314Z,49.8
2023-02-25T05:45:05.982Z,49.7
2023-02-25T05:46:49.838Z,49.6
2023-02-25T05:48:33.403Z,49.6
2023-02-25T05:50:17.090Z,49.6
2023-02-25T05:52:00.774Z,49.6
2023-02-25T05:53:44.496Z,49.6
2023-02-25T05:55:28.185Z,49.6
2023-02-25T05:57:11.901Z,49.5
2023-02-25T05:58:55.597Z,49.6
2023-02-25T06:00:39.283Z,49.5
2023-02-25T06:02:23.001Z,49.6
2023-02-25T06:04:06.709Z,49.6
2023-02-25T06:05:50.469Z,49.5
2023-02-25T06:07:34.098Z,49.5
2023-02-25T06:09:17.809Z,49.5
2023-02-25T06:11:01.558Z,49.5
2023-02-25T06:12:45.193Z,49.4
2023-02-25T06:14:28.948Z,49.5
2023-02-25T06:16:12.606Z,49.3
2023-02-25T06:17:56.304Z,49.4
2023-02-25T06:19:40.000Z,49.4
2023-02-25T06:21:23.716Z,49.4
2023-02-25T06:23:07.431Z,49.4
2023-02-25T06:24:51.122Z,49.4
2023-02-25T06:26:34.789Z,49.4
2023-02-25T06:28:18.505Z,49.4
2023-02-25T06:30:02.287Z,49.4
2023-02-25T06:31:45.918Z,49.4
2023-02-25T06:33:29.669Z,49.4
2023-02-25T06:35:13.327Z,49.3
2023-02-25T06:36:57.049Z,49.4
2023-02-25T06:38:40.735Z,49.4
2023-02-25T06:40:24.447Z,49.3
2023-02-25T06:42:08.117Z,49.4
2023-02-25T06:43:51.839Z,49.4
2023-02-25T06:45:35.545Z,49.4
2023-02-25T06:47:19.244Z,49.4
2023-02-25T06:49:02.969Z,49.3
2023-02-25T06:50:46.687Z,49.3
2023-02-25T06:52:30.350Z,49.4
2023-02-25T06:54:14.037Z,49.3
2023-02-25T06:55:57.723Z,49.3
2023-02-25T06:57:41.438Z,49.3
2023-02-25T06:59:25.136Z,49.3
2023-02-25T07:01:08.844Z,49.3
2023-02-25T07:02:52.533Z,49.3
2023-02-25T07:04:36.229Z,49.3
2023-02-25T07:06:19.955Z,49.3
2023-02-25T07:08:03.665Z,49.3
2023-02-25T07:09:47.358Z,49.4
2023-02-25T07:11:31.057Z,49.3
2023-02-25T07:13:14.766Z,49.2
2023-02-25T07:14:58.447Z,49.2
2023-02-25T07:16:42.149Z,49.2
2023-02-25T07:18:25.861Z,49.2
2023-02-25T07:20:09.559Z,49.2
2023-02-25T07:21:53.276Z,49.2
2023-02-25T07:23:37.058Z,49.2
2023-02-25T07:27:04.380Z,49.2
2023-02-25T07:28:48.088Z,49
2023-02-25T07:30:31.764Z,49
2023-02-25T07:32:15.483Z,49
2023-02-25T07:33:59.241Z,49
2023-02-25T07:35:42.884Z,49
2023-02-25T07:37:26.591Z,49
2023-02-25T07:39:10.276Z,49
2023-02-25T07:40:53.983Z,49
2023-02-25T07:42:37.687Z,49
2023-02-25T07:44:21.406Z,48.9
2023-02-25T07:46:05.086Z,49
2023-02-25T07:47:48.802Z,49
2023-02-25T07:49:32.500Z,49
2023-02-25T07:51:16.241Z,49
2023-02-25T07:52:59.889Z,49
2023-02-25T07:54:43.608Z,49
2023-02-25T07:56:27.311Z,48.9
2023-02-25T07:58:11.048Z,48.9
2023-02-25T07:59:54.711Z,49
2023-02-25T08:01:38.473Z,48.9
2023-02-25T08:03:22.122Z,48.9
2023-02-25T08:05:05.922Z,49
2023-02-25T08:06:49.550Z,48.9
2023-02-25T08:08:33.269Z,48.9
2023-02-25T08:10:16.923Z,48.9
2023-02-25T08:12:00.796Z,48.9
2023-02-25T08:13:44.340Z,48.8
2023-02-25T08:15:28.029Z,48.9
2023-02-25T08:17:11.762Z,48.9
2023-02-25T08:18:55.498Z,48.9
2023-02-25T08:20:39.158Z,48.9
2023-02-25T08:22:22.857Z,48.9
2023-02-25T08:24:06.574Z,48.8
2023-02-25T08:25:50.258Z,48.8
2023-02-25T08:27:34.001Z,48.8
2023-02-25T08:29:17.742Z,48.8
2023-02-25T08:31:01.368Z,48.7
2023-02-25T08:32:45.056Z,48.7
2023-02-25T08:34:28.801Z,48.7
2023-02-25T08:36:12.464Z,48.7
2023-02-25T08:37:56.178Z,48.2
2023-02-25T08:39:39.894Z,47.8
2023-02-25T08:41:23.638Z,47.6
2023-02-25T08:43:07.362Z,47.4
2023-02-25T08:44:51.055Z,47.2
2023-02-25T08:48:18.394Z,47
2023-02-25T08:50:02.155Z,46.9
2023-02-25T08:51:45.809Z,46.6
2023-02-25T08:53:29.465Z,46.4
2023-02-25T08:55:13.176Z,46.4
2023-02-25T08:56:56.888Z,46.4
2023-02-25T08:58:40.575Z,46.3
2023-02-25T09:00:24.308Z,46.4
2023-02-25T09:02:08.006Z,46.5
2023-02-25T09:03:51.681Z,46.6
2023-02-25T09:05:35.402Z,46.6
2023-02-25T09:07:19.116Z,46.6
2023-02-25T09:09:02.823Z,46.6
2023-02-25T09:10:46.496Z,46.7
2023-02-25T09:12:30.202Z,46.7
2023-02-25T09:14:13.895Z,46.7
2023-02-25T09:15:57.585Z,46.8
2023-02-25T09:17:41.328Z,47
2023-02-25T09:19:25.066Z,47.2
2023-02-25T09:21:08.721Z,47.2
2023-02-25T09:22:52.402Z,47.4
2023-02-25T09:24:36.103Z,47.3
2023-02-25T09:26:19.821Z,47.4
2023-02-25T09:28:03.523Z,47.5
2023-02-25T09:29:47.290Z,47.4
2023-02-25T09:31:30.920Z,47.3
2023-02-25T09:33:14.623Z,47.9
2023-02-25T09:34:58.321Z,48.2
2023-02-25T09:36:42.043Z,48.1
2023-02-25T09:38:25.743Z,48.3
2023-02-25T09:41:53.123Z,48.2
2023-02-25T09:43:36.820Z,48.3
2023-02-25T09:45:20.536Z,48.1
2023-02-25T09:47:04.233Z,47.9
2023-02-25T09:48:47.923Z,48.1
2023-02-25T09:50:31.642Z,48
2023-02-25T09:52:15.379Z,47.9
2023-02-25T09:53:59.040Z,47.7
2023-02-25T09:55:42.743Z,47.4
2023-02-25T09:57:26.446Z,47.4
2023-02-25T09:59:10.156Z,47.3
2023-02-25T10:00:53.853Z,47.3
2023-02-25T10:02:37.574Z,47.2
2023-02-25T10:04:21.276Z,47.2
2023-02-25T10:06:04.965Z,47.3
2023-02-25T10:07:48.673Z,47.3
2023-02-25T10:09:32.383Z,47.3
2023-02-25T10:11:16.138Z,47.3
2023-02-25T10:12:59.769Z,47
2023-02-25T10:14:43.466Z,46.6
2023-02-25T10:16:27.167Z,46.5
2023-02-25T10:18:10.893Z,46.6
2023-02-25T10:19:54.565Z,46.8
2023-02-25T10:21:38.293Z,46.8
2023-02-25T10:23:21.980Z,46.8
2023-02-25T10:25:05.764Z,46.9
2023-02-25T10:26:49.359Z,46.8
2023-02-25T10:28:33.070Z,47
2023-02-25T10:30:16.795Z,47.4
2023-02-25T10:32:00.494Z,47.1
2023-02-25T10:33:44.221Z,47.1
2023-02-25T10:35:27.907Z,46.9
2023-02-25T10:38:55.296Z,47
2023-02-25T10:40:38.991Z,47
2023-02-25T10:42:22.702Z,47.1
2023-02-25T10:44:06.406Z,47.1
2023-02-25T10:45:50.109Z,47.1
2023-02-25T10:47:33.808Z,46.9
2023-02-25T10:49:17.520Z,46.7
2023-02-25T10:51:01.206Z,46.7
2023-02-25T10:52:44.892Z,46.8
2023-02-25T10:54:28.697Z,46.8
2023-02-25T10:56:12.424Z,46.9
2023-02-25T10:57:56.151Z,46.9
2023-02-25T10:59:39.938Z,46.8
2023-02-25T11:01:23.418Z,46.8
2023-02-25T11:03:07.223Z,46.8
2023-02-25T11:04:51.013Z,46.7
2023-02-25T11:06:34.648Z,46.7
2023-02-25T11:08:18.382Z,46.7
2023-02-25T11:10:02.066Z,46.7
2023-02-25T11:11:45.774Z,46.6
2023-02-25T11:13:29.457Z,46.5
2023-02-25T11:15:13.079Z,46.4
2023-02-25T11:16:56.894Z,46.3
2023-02-25T11:18:40.582Z,46.3
2023-02-25T11:20:24.293Z,46.2
2023-02-25T11:22:07.856Z,46.1
2023-02-25T11:23:51.587Z,45.9
2023-02-25T11:25:35.253Z,45.8
2023-02-25T11:27:19.055Z,45.7
2023-02-25T11:29:02.770Z,45.7
2023-02-25T11:30:46.524Z,45.7
2023-02-25T11:32:30.057Z,45.9
2023-02-25T11:34:13.941Z,46.1
2023-02-25T11:35:57.528Z,46.4
2023-02-25T11:37:41.328Z,46.5
2023-02-25T11:39:24.969Z,46.8
2023-02-25T11:41:08.687Z,47
2023-02-25T11:42:52.334Z,47.2
2023-02-25T11:44:35.981Z,47.4
2023-02-25T11:46:19.703Z,47.5
2023-02-25T11:48:03.441Z,47.6
2023-02-25T11:49:47.142Z,47.8
2023-02-25T11:51:30.983Z,47.9
2023-02-25T11:53:14.473Z,48
2023-02-25T11:54:58.284Z,48.1
2023-02-25T11:56:41.932Z,48.1
2023-02-25T11:58:25.758Z,48.2
2023-02-25T12:00:09.402Z,48.2
2023-02-25T12:01:53.001Z,48.1
2023-02-25T12:03:36.788Z,48.1
2023-02-25T12:05:20.393Z,48
2023-02-25T12:07:04.144Z,48
2023-02-25T12:08:47.850Z,48
2023-02-25T12:10:31.489Z,47.9
2023-02-25T12:12:15.373Z,47.8
2023-02-25T12:13:59.108Z,47.8
2023-02-25T12:15:42.594Z,47.7
2023-02-25T12:17:26.473Z,47.7
2023-02-25T12:19:10.146Z,47.5
2023-02-25T12:20:53.771Z,47.3
2023-02-25T12:22:37.392Z,47.4
2023-02-25T12:24:21.125Z,47.5
2023-02-25T12:26:04.830Z,47.6
2023-02-25T12:27:48.586Z,47.7
2023-02-25T12:29:32.209Z,47.8
2023-02-25T12:31:15.897Z,47.8
2023-02-25T12:32:59.667Z,47.8
2023-02-25T12:34:43.331Z,47.8
2023-02-25T12:36:27.093Z,47.9
2023-02-25T12:38:10.746Z,47.8
2023-02-25T12:39:54.399Z,47.7
2023-02-25T12:41:38.118Z,47.8
2023-02-25T12:43:21.809Z,47.9
2023-02-25T12:45:05.625Z,48.1
2023-02-25T12:46:49.319Z,48.2
2023-02-25T12:48:32.956Z,48.2
2023-02-25T12:50:16.623Z,48.2
2023-02-25T12:52:00.321Z,48.2
2023-02-25T12:53:44.036Z,48.2
2023-02-25T12:55:27.729Z,48.3
2023-02-25T12:57:11.443Z,48.3
2023-02-25T12:58:55.114Z,48.3
2023-02-25T13:00:38.810Z,48.3
2023-02-25T13:02:22.614Z,48.2
2023-02-25T13:04:06.215Z,48.1
2023-02-25T13:05:49.939Z,48
2023-02-25T13:07:33.643Z,47.9
2023-02-25T13:09:17.358Z,47.7
2023-02-25T13:11:01.035Z,47.7
2023-02-25T13:12:44.737Z,47.6
2023-02-25T13:14:28.434Z,47.5
2023-02-25T13:16:12.150Z,47.4
2023-02-25T13:17:55.851Z,47.3
2023-02-25T13:19:39.558Z,47.2
2023-02-25T13:21:23.251Z,47.2
2023-02-25T13:23:07.083Z,47.1
2023-02-25T13:24:50.764Z,47
2023-02-25T13:28:18.057Z,46.8
2023-02-25T13:30:01.767Z,46.8
2023-02-25T13:31:45.473Z,46.9
2023-02-25T13:33:29.258Z,46.9
2023-02-25T13:35:12.865Z,47
2023-02-25T13:36:56.603Z,47
2023-02-25T13:38:40.339Z,47.2
2023-02-25T13:40:23.974Z,47.2
2023-02-25T13:42:07.658Z,47.2
2023-02-25T13:43:51.365Z,47.1
2023-02-25T13:45:35.101Z,47.1
2023-02-25T13:47:18.795Z,47.1
2023-02-25T13:49:02.469Z,47.1
2023-02-25T13:50:46.187Z,47.1
2023-02-25T13:52:30.010Z,47.1
2023-02-25T13:54:13.581Z,47.1
2023-02-25T13:55:57.275Z,47
2023-02-25T13:57:40.980Z,47
2023-02-25T13:59:24.715Z,46.9
2023-02-25T14:01:08.421Z,47
2023-02-25T14:02:52.114Z,47
2023-02-25T14:04:35.810Z,47.1
2023-02-25T14:06:19.500Z,47.2
2023-02-25T14:08:03.200Z,47.1
2023-02-25T14:09:46.898Z,47.1
2023-02-25T14:11:30.617Z,47.1
2023-02-25T14:13:14.425Z,47.2
2023-02-25T14:14:58.032Z,47.3
2023-02-25T14:16:41.709Z,47.4
2023-02-25T14:18:25.415Z,47.4
2023-02-25T14:20:09.103Z,47.5
2023-02-25T14:21:52.862Z,47.5
2023-02-25T14:23:36.525Z,47.5
2023-02-25T14:25:20.222Z,47.5
2023-02-25T14:27:03.909Z,47.5
2023-02-25T14:28:47.626Z,47.7
2023-02-25T14:30:31.342Z,47.7
2023-02-25T14:32:15.064Z,47.8
2023-02-25T14:33:58.719Z,47.9
2023-02-25T14:35:42.479Z,47.9
2023-02-25T14:37:26.147Z,48
2023-02-25T14:39:09.806Z,48
2023-02-25T14:40:53.513Z,48
2023-02-25T14:42:37.203Z,48
2023-02-25T14:44:20.971Z,48
2023-02-25T14:46:04.618Z,48.1
2023-02-25T14:47:48.314Z,48.1
2023-02-25T14:58:10.745Z,47.7
2023-02-25T14:59:54.235Z,48.2
2023-02-25T15:01:37.993Z,48
2023-02-25T15:03:21.638Z,48
2023-02-25T15:05:05.347Z,48.1
2023-02-25T15:06:49.074Z,48.2
2023-02-25T15:08:32.810Z,48.3
2023-02-25T15:10:16.510Z,48.4
2023-02-25T15:12:00.215Z,48.5
2023-02-25T15:13:43.848Z,48.5
2023-02-25T15:15:27.531Z,48.7
2023-02-25T15:17:11.279Z,48.7
2023-02-25T15:18:55.031Z,48.8
2023-02-25T15:20:38.657Z,48.8
2023-02-25T15:22:22.487Z,49
2023-02-25T15:24:06.049Z,49
2023-02-25T15:25:49.751Z,49
2023-02-25T15:27:33.453Z,48.9
2023-02-25T15:29:17.194Z,48.8
2023-02-25T15:31:00.850Z,48.6
2023-02-25T15:32:44.546Z,48.5
2023-02-25T15:34:28.337Z,48.6
2023-02-25T15:36:11.942Z,48.6
2023-02-25T15:37:55.660Z,48.5
2023-02-25T15:39:39.446Z,47.9
2023-02-25T15:41:23.055Z,47.5
2023-02-25T15:43:06.838Z,47.7
2023-02-25T15:44:50.463Z,47.8
2023-02-25T15:46:34.166Z,47.8
2023-02-25T15:48:17.869Z,47.8
2023-02-25T15:50:01.641Z,47.9
2023-02-25T15:51:45.286Z,48.1
2023-02-25T15:53:28.984Z,48.1
2023-02-25T15:55:12.675Z,48.2
2023-02-25T15:56:56.405Z,49.2
2023-02-25T15:58:40.139Z,49.6
2023-02-25T16:00:23.785Z,49.6
2023-02-25T16:02:07.651Z,49.4
2023-02-25T16:03:51.191Z,49.5
2023-02-25T16:05:34.903Z,49.5
2023-02-25T16:07:18.605Z,49.8
2023-02-25T16:09:02.307Z,49.6
2023-02-25T16:10:46.003Z,49.6
2023-02-25T16:12:29.705Z,49.6
2023-02-25T16:14:13.414Z,49.5
2023-02-25T16:15:57.099Z,49.4
2023-02-25T16:17:40.831Z,49.4
2023-02-25T16:19:24.587Z,49.3
2023-02-25T16:21:08.289Z,49.3
2023-02-25T16:22:51.919Z,49.4
2023-02-25T16:24:35.637Z,49.4
2023-02-25T16:26:19.330Z,49.5
2023-02-25T16:28:03.109Z,49.5
2023-02-25T16:29:46.733Z,49.5
2023-02-25T16:31:30.434Z,49.5
2023-02-25T16:33:14.395Z,49.5
2023-02-25T16:34:57.853Z,49.5
2023-02-25T16:36:41.564Z,49.6
2023-02-25T16:38:25.239Z,49.6
2023-02-25T16:40:08.968Z,49.6
2023-02-25T16:41:52.648Z,49.5
2023-02-25T16:43:36.374Z,49.7
2023-02-25T16:45:20.117Z,49.6
2023-02-25T16:47:03.762Z,49.9
2023-02-25T16:48:47.462Z,50.1
2023-02-25T16:50:31.167Z,50
2023-02-25T16:52:14.996Z,50
2023-02-25T16:53:58.614Z,49.9
2023-02-25T16:55:42.334Z,49.8
2023-02-25T16:57:26.071Z,49.8
2023-02-25T16:59:09.678Z,49.8
2023-02-25T17:00:53.391Z,49.8
2023-02-25T17:02:37.158Z,49.7
2023-02-25T17:04:20.774Z,49.8
2023-02-25T17:06:04.543Z,49.8
2023-02-25T17:07:48.186Z,49.9
2023-02-25T17:09:31.946Z,49.9
2023-02-25T17:11:15.600Z,50
2023-02-25T17:12:59.293Z,50.2
2023-02-25T17:14:42.990Z,50.3
2023-02-25T17:16:26.736Z,50.4
2023-02-25T17:18:10.411Z,50.6
2023-02-25T17:19:54.136Z,50.8
2023-02-25T17:21:37.845Z,50.9
2023-02-25T17:23:21.646Z,51
2023-02-25T17:25:05.199Z,51.1
2023-02-25T17:26:48.991Z,51.2
2023-02-25T17:28:32.643Z,51.3
2023-02-25T17:30:16.400Z,51.4
2023-02-25T17:31:59.980Z,51.5
2023-02-25T17:33:43.723Z,51.6
2023-02-25T17:35:27.408Z,51.6
2023-02-25T17:37:11.123Z,51.6
2023-02-25T17:38:54.834Z,51.6
2023-02-25T17:40:38.506Z,51.6
2023-02-25T17:42:22.329Z,51.6
2023-02-25T17:44:05.959Z,51.6
2023-02-25T17:45:49.635Z,51.6
2023-02-25T17:47:33.354Z,51.6
2023-02-25T17:49:17.036Z,51.6
2023-02-25T17:51:00.798Z,51.5
2023-02-25T17:52:44.455Z,51.5
2023-02-25T17:54:28.250Z,51.4
2023-02-25T17:56:11.866Z,51.4
2023-02-25T17:57:55.566Z,51.3
2023-02-25T17:59:39.262Z,51.4
2023-02-25T18:01:22.965Z,51.3
2023-02-25T18:03:06.646Z,51.4
2023-02-25T18:04:50.359Z,51.6
2023-02-25T18:06:34.217Z,51.6
2023-02-25T18:08:17.771Z,51.6
2023-02-25T18:10:01.496Z,51.6
2023-02-25T18:11:45.174Z,51.5
2023-02-25T18:13:28.969Z,51.5
2023-02-25T18:15:12.677Z,51.5
2023-02-25T18:16:56.244Z,51.5
2023-02-25T18:18:40.143Z,51.5
2023-02-25T18:20:23.697Z,51.4
2023-02-25T18:22:07.347Z,51.4
2023-02-25T18:23:51.081Z,51.4
2023-02-25T18:25:34.786Z,51.5
2023-02-25T18:27:18.461Z,51.4
2023-02-25T18:29:02.373Z,51.5
2023-02-25T18:30:45.940Z,51.3
2023-02-25T18:32:29.560Z,51.4
2023-02-25T18:34:13.269Z,51.4
2023-02-25T18:35:56.944Z,51.2
2023-02-25T18:37:40.708Z,51.3
2023-02-25T18:39:24.497Z,51.4
2023-02-25T18:41:08.059Z,51.5
2023-02-25T18:42:51.754Z,51.3
2023-02-25T18:44:35.462Z,51.3
2023-02-25T18:46:19.217Z,51.3
2023-02-25T18:48:02.874Z,51.1
2023-02-25T18:49:46.541Z,50.9
2023-02-25T18:51:30.391Z,50.8
2023-02-25T18:53:13.961Z,50.8
2023-02-25T18:54:57.683Z,50.9
2023-02-25T18:56:41.406Z,50.8
2023-02-25T18:58:25.063Z,50.8
2023-02-25T19:00:08.789Z,50.8
2023-02-25T19:01:52.468Z,50.8
2023-02-25T19:03:36.161Z,50.8
2023-02-25T19:05:19.945Z,50.8
2023-02-25T19:07:03.581Z,50.8
2023-02-25T19:08:47.326Z,50.9
2023-02-25T19:10:31.009Z,50.9
2023-02-25T19:12:14.693Z,50.9
2023-02-25T19:13:58.419Z,50.9
2023-02-25T19:15:42.167Z,50.9
2023-02-25T19:17:25.793Z,50.9
2023-02-25T19:19:09.517Z,50.9
2023-02-25T19:20:53.210Z,50.9
2023-02-25T19:22:36.958Z,50.9
2023-02-25T19:24:20.708Z,50.9
2023-02-25T19:26:04.398Z,51
2023-02-25T19:27:48.075Z,50.9
2023-02-25T19:29:31.712Z,50.9
2023-02-25T19:31:15.382Z,50.9
2023-02-25T19:32:59.113Z,50.8
2023-02-25T19:34:42.822Z,50.8
2023-02-25T19:36:26.511Z,51
2023-02-25T19:38:10.198Z,51
2023-02-25T19:39:53.896Z,51
2023-02-25T19:41:37.717Z,51
2023-02-25T19:43:21.451Z,51
2023-02-25T19:45:05.037Z,51
2023-02-25T19:46:48.856Z,51.1
2023-02-25T19:48:32.570Z,51.2
2023-02-25T19:50:16.207Z,51.1
2023-02-25T19:51:59.886Z,51.1
2023-02-25T19:53:43.502Z,51.1
2023-02-25T19:55:27.272Z,51.1
2023-02-25T19:57:10.999Z,51.2
2023-02-25T19:58:54.584Z,51.1
2023-02-25T20:00:38.441Z,51.1
2023-02-25T20:02:22.287Z,51.1
2023-02-25T20:04:05.953Z,51.1
2023-02-25T20:05:49.487Z,51.1
2023-02-25T20:07:33.227Z,51.2
2023-02-25T20:09:16.869Z,51.1
2023-02-25T20:11:00.582Z,51.1
2023-02-25T20:12:44.341Z,51.1
2023-02-25T20:14:27.902Z,51
2023-02-25T20:16:11.689Z,51
2023-02-25T20:17:55.412Z,51
2023-02-25T20:19:39.130Z,51.1
2023-02-25T20:21:22.784Z,51.1
2023-02-25T20:23:06.520Z,51
2023-02-25T20:24:50.254Z,51.1
2023-02-25T20:26:33.815Z,51.1
2023-02-25T20:28:17.601Z,51.1
2023-02-25T20:30:01.325Z,51.1
2023-02-25T20:31:44.989Z,51
2023-02-25T20:33:28.679Z,51.1
2023-02-25T20:35:12.417Z,51.1
2023-02-25T20:36:56.056Z,51
2023-02-25T20:38:39.737Z,51
2023-02-25T20:40:23.460Z,51
2023-02-25T20:42:07.149Z,51
2023-02-25T20:43:50.866Z,51
2023-02-25T20:45:34.561Z,51
2023-02-25T20:47:18.345Z,51
2023-02-25T20:49:01.958Z,51.1
2023-02-25T20:50:45.738Z,51.1
2023-02-25T20:52:29.424Z,51.1
2023-02-25T20:54:13.052Z,51.1
2023-02-25T20:55:56.743Z,51.1
2023-02-25T20:57:40.594Z,51.1
2023-02-25T20:59:24.156Z,51.1
2023-02-25T21:01:07.856Z,51.1
2023-02-25T21:02:51.545Z,51.1
2023-02-25T21:04:35.254Z,51.1
2023-02-25T21:06:18.952Z,51.1
2023-02-25T21:08:02.663Z,51.1
2023-02-25T21:09:46.359Z,51.1
2023-02-25T21:11:30.094Z,51.1
2023-02-25T21:14:57.510Z,51.1
2023-02-25T21:16:41.175Z,51.1
2023-02-25T21:18:24.885Z,51
2023-02-25T21:20:08.591Z,51.1
2023-02-25T21:21:52.283Z,51.1
2023-02-25T21:23:35.983Z,51.1
2023-02-25T21:25:19.681Z,51.1
2023-02-25T21:27:03.408Z,51
2023-02-25T21:28:47.106Z,51
2023-02-25T21:30:30.811Z,51
2023-02-25T21:32:14.542Z,51
2023-02-25T21:33:58.196Z,51
2023-02-25T21:35:41.928Z,51
2023-02-25T21:37:25.618Z,51
2023-02-25T21:39:09.294Z,50.9
2023-02-25T21:40:53.005Z,50.9
2023-02-25T21:42:36.721Z,50.9
2023-02-25T21:44:20.506Z,50.9
2023-02-25T21:46:04.132Z,50.8
2023-02-25T21:47:47.837Z,50.9
2023-02-25T21:49:31.527Z,50.9
2023-02-25T21:51:15.209Z,50.9
2023-02-25T21:52:58.895Z,50.9
2023-02-25T21:54:42.601Z,51
2023-02-25T21:56:26.332Z,51.2
2023-02-25T21:58:10.000Z,51.3
2023-02-25T21:59:53.731Z,51.2
2023-02-25T22:01:37.416Z,51.2
2023-02-25T22:03:21.134Z,51.1
2023-02-25T22:05:04.812Z,51.2
2023-02-25T22:06:48.519Z,51.2
2023-02-25T22:08:32.232Z,50.9
2023-02-25T22:10:16.024Z,50.9
2023-02-25T22:11:59.638Z,51
2023-02-25T22:13:43.346Z,51.2
2023-02-25T22:15:27.047Z,51.2
2023-02-25T22:17:10.860Z,50.8
2023-02-25T22:18:54.446Z,51
2023-02-25T22:22:21.874Z,50.6
2023-02-25T22:24:05.602Z,50.5
2023-02-25T22:25:49.258Z,50.2
2023-02-25T22:27:32.969Z,50.3
2023-02-25T22:29:16.734Z,50.1
2023-02-25T22:31:00.387Z,50.1
2023-02-25T22:32:44.080Z,50.1
2023-02-25T22:34:27.794Z,50.1
2023-02-25T22:36:11.492Z,50.1
2023-02-25T22:37:55.233Z,50
2023-02-25T22:39:38.972Z,50
2023-02-25T22:41:22.608Z,50
2023-02-25T22:43:06.289Z,50
2023-02-25T22:44:50.009Z,50
2023-02-25T22:46:33.821Z,49.8
2023-02-25T22:48:17.530Z,49.8
2023-02-25T22:50:01.288Z,49.9
2023-02-25T22:51:44.815Z,49.8
2023-02-25T22:53:28.550Z,49.9
2023-02-25T22:55:12.248Z,49.8
2023-02-25T22:56:55.964Z,49.8
2023-02-25T22:58:39.648Z,49.8
2023-02-25T23:00:23.357Z,49.8
2023-02-25T23:02:07.039Z,49.7
2023-02-25T23:03:50.752Z,49.9
2023-02-25T23:05:34.435Z,49.9
2023-02-25T23:07:18.140Z,49.8
2023-02-25T23:09:01.830Z,49.8
2023-02-25T23:10:45.522Z,49.8
2023-02-25T23:12:29.332Z,49.8
2023-02-25T23:14:12.984Z,49.7
2023-02-25T23:15:56.618Z,49.7
2023-02-25T23:17:40.344Z,49.7
2023-02-25T23:19:24.142Z,49.6
2023-02-25T23:21:07.743Z,49.7
2023-02-25T23:22:51.435Z,49.7
2023-02-25T23:24:35.147Z,49.7
2023-02-25T23:26:18.841Z,49.8
2023-02-25T23:28:02.578Z,49.7
2023-02-25T23:29:46.237Z,49.7
2023-02-25T23:31:29.931Z,49.7
2023-02-25T23:33:13.650Z,49.7
2023-02-25T23:34:57.346Z,49.7
2023-02-25T23:36:41.039Z,49.7